Time;durP1;ratioP1;P1;durP2;ratioP2;P2;SDS_P1;SDS_P2;PMS_P1;PMS_P2;Temp;Humidity;BMP_temperature;BMP_pressure;BME280_temperature;BME280_humidity;BME280_pressure;Samples;Min_cycle;Max_cycle;Signal;HPM_P1;HPM_P2
2022/08/29 00:00:09;;;;;;;5.28;1.80;;;;;;;14.64;67.11;102101.25;5013505;28;20127;-78
2022/08/29 00:02:34;;;;;;;3.90;1.90;;;;;;;14.61;67.29;102096.09;5014468;28;20105;-77
2022/08/29 00:05:00;;;;;;;5.38;1.92;;;;;;;14.58;67.03;102090.91;5015370;28;20579;-77
2022/08/29 00:07:25;;;;;;;5.15;1.90;;;;;;;14.54;67.21;102091.88;5017373;28;20060;-77
2022/08/29 00:09:50;;;;;;;4.05;2.00;;;;;;;14.51;67.56;102086.72;5015100;28;20041;-77
2022/08/29 00:12:15;;;;;;;4.43;2.03;;;;;;;14.48;67.84;102082.41;5001644;28;20489;-77
2022/08/29 00:14:41;;;;;;;4.18;1.70;;;;;;;14.45;67.87;102087.69;5009768;28;20049;-77
2022/08/29 00:17:06;;;;;;;4.53;1.92;;;;;;;14.39;68.21;102088.69;5018404;28;20715;-78
2022/08/29 00:19:31;;;;;;;4.57;2.17;;;;;;;14.39;68.29;102093.94;5017026;28;20030;-77
2022/08/29 00:21:57;;;;;;;4.43;1.95;;;;;;;14.40;68.35;102077.34;5010501;28;20094;-77
2022/08/29 00:24:22;;;;;;;4.82;1.90;;;;;;;14.37;68.21;102077.41;5012857;28;20030;-77
2022/08/29 00:26:48;;;;;;;3.92;1.90;;;;;;;14.34;68.17;102080.09;5015213;28;20075;-77
2022/08/29 00:29:13;;;;;;;5.07;2.17;;;;;;;14.31;68.50;102080.16;5017177;28;20044;-78
2022/08/29 00:31:38;;;;;;;5.07;2.20;;;;;;;14.30;67.99;102082.81;5012648;28;20069;-77
2022/08/29 00:34:03;;;;;;;5.50;2.40;;;;;;;14.24;67.99;102078.56;5006786;28;20073;-77
2022/08/29 00:36:29;;;;;;;4.53;1.90;;;;;;;14.20;68.98;102079.50;5007693;28;20032;-78
2022/08/29 00:38:54;;;;;;;3.97;1.95;;;;;;;14.18;69.13;102079.56;5012686;28;20045;-77
2022/08/29 00:41:19;;;;;;;3.70;1.90;;;;;;;14.17;69.20;102083.06;5005962;28;20083;-77
2022/08/29 00:43:45;;;;;;;5.80;2.00;;;;;;;14.17;69.66;102084.84;5008862;28;20499;-78
2022/08/29 00:46:41;;;;;;;3.20;2.10;;;;;;;14.17;67.62;102090.06;5004072;28;20026;-77
2022/08/29 00:49:31;;;;;;;4.15;1.92;;;;;;;14.16;67.51;102090.97;5012054;28;20517;-77
2022/08/29 00:52:02;;;;;;;3.58;1.80;;;;;;;14.09;68.20;102096.31;5010183;28;20042;-77
2022/08/29 00:54:29;;;;;;;4.15;1.85;;;;;;;14.04;68.86;102095.53;5006972;28;20041;-77
2022/08/29 00:56:55;;;;;;;7.30;2.10;;;;;;;14.01;69.40;102098.22;5007345;28;20475;-77
2022/08/29 00:59:25;;;;;;;5.05;2.00;;;;;;;13.98;69.52;102098.28;5012869;28;20075;-77
2022/08/29 01:01:50;;;;;;;5.28;2.15;;;;;;;13.98;69.77;102092.19;5010058;28;20404;-77
2022/08/29 01:04:16;;;;;;;3.38;2.10;;;;;;;13.94;69.25;102092.25;5011848;28;20037;-78
2022/08/29 01:06:42;;;;;;;4.55;2.00;;;;;;;13.90;69.19;102092.34;5007145;28;20079;-77
2022/08/29 01:09:09;;;;;;;5.20;2.35;;;;;;;13.87;69.53;102092.38;5011224;28;20029;-77
2022/08/29 01:14:21;;;;;;;3.40;1.92;;;;;;;13.72;70.38;102097.03;5009248;28;20405;-77
2022/08/29 01:16:49;;;;;;;3.65;2.00;;;;;;;13.69;71.15;102107.53;5016866;28;20040;-77
2022/08/29 01:19:33;;;;;;;4.13;1.92;;;;;;;13.70;69.51;102109.25;5010833;28;20432;-77
2022/08/29 01:22:05;;;;;;;4.70;2.00;;;;;;;13.66;70.15;102102.38;5010999;28;20572;-77
2022/08/29 01:24:42;;;;;;;6.07;2.30;;;;;;;13.61;71.29;102106.84;5012773;28;20033;-77
2022/08/29 01:27:11;;;;;;;4.65;2.15;;;;;;;13.56;69.82;102099.06;5012892;28;20109;-77
2022/08/29 01:29:36;;;;;;;4.05;2.22;;;;;;;13.51;69.51;102093.91;5011934;28;20026;-77
2022/08/29 01:32:02;;;;;;;4.82;2.17;;;;;;;13.48;69.55;102094.00;5021967;28;20035;-77
2022/08/29 01:34:28;;;;;;;4.10;2.00;;;;;;;13.45;69.82;102099.28;5015101;28;20052;-77
2022/08/29 01:36:57;;;;;;;4.00;2.30;;;;;;;13.44;70.77;102102.75;5016241;28;20018;-77
2022/08/29 01:39:26;;;;;;;6.00;2.50;;;;;;;13.42;71.15;102099.31;5012260;28;20459;-77
2022/08/29 01:41:52;;;;;;;4.95;2.22;;;;;;;13.42;71.46;102098.44;5014649;28;20081;-77
2022/08/29 01:44:20;;;;;;;4.22;2.15;;;;;;;13.41;70.80;102099.34;5011604;28;20018;-78
2022/08/29 01:46:49;;;;;;;3.22;1.92;;;;;;;13.38;70.94;102092.38;5011890;28;20028;-77
2022/08/29 01:49:16;;;;;;;5.53;2.00;;;;;;;13.35;70.33;102089.81;5007264;28;20068;-77
2022/08/29 01:51:42;;;;;;;4.65;1.90;;;;;;;13.32;70.29;102092.50;5013092;28;20040;-77
2022/08/29 01:54:09;;;;;;;3.78;2.22;;;;;;;13.29;70.46;102095.16;5014732;28;20450;-77
2022/08/29 01:56:38;;;;;;;3.30;2.00;;;;;;;13.26;71.09;102093.44;5016100;28;20037;-77
2022/08/29 01:59:06;;;;;;;4.28;2.10;;;;;;;13.20;71.53;102090.94;5010920;28;20500;-77
2022/08/29 02:01:36;;;;;;;5.57;2.10;;;;;;;13.15;71.11;102090.16;5013394;28;20026;-77
2022/08/29 02:04:03;;;;;;;3.90;1.92;;;;;;;13.12;70.72;102091.09;5015747;28;20083;-77
2022/08/29 02:06:28;;;;;;;4.30;2.17;;;;;;;13.10;71.11;102092.84;5013491;28;20036;-77
2022/08/29 02:08:54;;;;;;;4.40;2.38;;;;;;;13.04;71.51;102091.22;5019115;28;20038;-77
2022/08/29 02:11:20;;;;;;;4.60;1.92;;;;;;;13.02;71.42;102092.09;5013475;28;20029;-77
2022/08/29 02:13:49;;;;;;;5.10;2.08;;;;;;;13.02;71.73;102094.72;5011701;28;20022;-77
2022/08/29 02:16:16;;;;;;;2.85;1.80;;;;;;;13.03;71.97;102096.44;5004958;28;20030;-77
2022/08/29 02:18:42;;;;;;;4.50;2.25;;;;;;;13.04;71.90;102092.94;5021388;28;20224;-77
2022/08/29 02:21:09;;;;;;;5.93;2.10;;;;;;;13.04;71.97;102095.56;5013528;28;20508;-77
2022/08/29 02:23:36;;;;;;;3.83;1.95;;;;;;;13.03;71.04;102091.22;5011982;28;20558;-77
2022/08/29 02:26:02;;;;;;;3.70;1.88;;;;;;;13.01;70.79;102087.75;4998999;28;20049;-77
2022/08/29 02:28:27;;;;;;;4.32;2.40;;;;;;;12.99;71.43;102094.75;5010520;28;20033;-77
2022/08/29 02:30:53;;;;;;;5.90;2.60;;;;;;;12.96;71.64;102094.81;5010306;28;20030;-77
2022/08/29 02:33:19;;;;;;;4.90;2.28;;;;;;;12.94;71.88;102091.38;5009998;28;20026;-77
2022/08/29 02:35:45;;;;;;;5.47;2.42;;;;;;;12.88;72.19;102103.63;5012213;28;20354;-77
2022/08/29 02:38:11;;;;;;;5.80;2.28;;;;;;;12.88;72.22;102098.41;5011458;28;20026;-77
2022/08/29 02:40:36;;;;;;;3.40;2.10;;;;;;;12.88;71.35;102101.03;5017278;28;20028;-77
2022/08/29 02:43:03;;;;;;;4.57;2.17;;;;;;;12.84;71.83;102107.16;5011520;28;20346;-77
2022/08/29 02:45:28;;;;;;;6.20;1.95;;;;;;;12.81;71.74;102106.34;5010699;28;20038;-77
2022/08/29 02:47:53;;;;;;;3.08;2.08;;;;;;;12.77;71.63;102110.78;5014653;28;20030;-77
2022/08/29 02:50:20;;;;;;;4.07;2.20;;;;;;;12.75;71.72;102109.94;5014348;28;20087;-77
2022/08/29 02:52:46;;;;;;;2.97;2.00;;;;;;;12.76;72.36;102111.66;5009574;28;20034;-77
2022/08/29 02:55:15;;;;;;;5.47;2.22;;;;;;;12.76;72.64;102124.72;5009759;28;20022;-77
2022/08/29 02:57:42;;;;;;;17.83;2.80;;;;;;;12.77;72.98;102115.13;5010391;28;20034;-77
2022/08/29 03:00:11;;;;;;;11.35;2.70;;;;;;;12.79;72.65;102116.84;5009919;28;20092;-77
2022/08/29 03:02:37;;;;;;;7.03;2.60;;;;;;;12.78;72.38;102111.63;4998556;28;20017;-77
2022/08/29 03:05:04;;;;;;;6.53;2.90;;;;;;;12.75;72.44;102118.59;5012459;28;20045;-77
2022/08/29 03:07:29;;;;;;;5.35;2.42;;;;;;;12.73;72.61;102106.47;5009237;28;20041;-77
2022/08/29 03:09:54;;;;;;;5.82;2.70;;;;;;;12.71;72.78;102101.28;5011422;28;20037;-77
2022/08/29 03:12:20;;;;;;;5.45;2.60;;;;;;;12.72;73.41;102102.13;5009740;28;20021;-77
2022/08/29 03:14:45;;;;;;;5.00;2.53;;;;;;;12.70;72.88;102107.38;5012277;28;20400;-77
2022/08/29 03:17:10;;;;;;;4.40;2.60;;;;;;;12.69;73.36;102096.94;5007498;28;20044;-77
2022/08/29 03:19:36;;;;;;;9.88;2.80;;;;;;;12.65;73.00;102098.75;5006906;28;20030;-77
2022/08/29 03:22:01;;;;;;;4.53;2.60;;;;;;;12.62;72.94;102097.94;5011034;28;20026;-77
2022/08/29 03:24:27;;;;;;;5.97;2.83;;;;;;;12.58;73.79;102097.97;5009450;28;20033;-77
2022/08/29 03:26:52;;;;;;;5.40;3.22;;;;;;;12.57;74.24;102097.97;5010834;28;20030;-77
2022/08/29 03:29:17;;;;;;;6.05;3.10;;;;;;;12.54;74.37;102104.13;5008341;28;20171;-77
2022/08/29 03:31:43;;;;;;;6.35;3.20;;;;;;;12.54;73.88;102101.50;5007875;28;20029;-77
2022/08/29 03:34:08;;;;;;;7.38;3.20;;;;;;;12.53;73.74;102105.00;5009954;28;20030;-77
2022/08/29 03:36:33;;;;;;;4.90;2.88;;;;;;;12.55;72.88;102105.00;5014314;28;20111;-77
2022/08/29 03:38:59;;;;;;;5.57;2.53;;;;;;;12.54;72.57;102098.91;5010932;28;20034;-77
2022/08/29 03:41:26;;;;;;;6.95;3.42;;;;;;;12.52;73.05;102094.59;5011452;28;20092;-77
2022/08/29 03:43:58;;;;;;;6.25;3.53;;;;;;;12.51;72.61;102098.94;5007876;28;20095;-77
2022/08/29 03:46:24;;;;;;;10.63;3.78;;;;;;;12.51;73.15;102090.25;4991751;28;20034;-77
2022/08/29 03:48:49;;;;;;;9.82;4.10;;;;;;;12.49;73.54;102085.03;5010510;28;20037;-77
2022/08/29 03:51:16;;;;;;;8.07;3.95;;;;;;;12.49;73.16;102089.41;5011032;28;20022;-77
2022/08/29 03:53:41;;;;;;;8.73;4.00;;;;;;;12.46;73.48;102087.72;5009144;28;20485;-77
2022/08/29 03:56:08;;;;;;;9.38;4.35;;;;;;;12.46;73.21;102082.50;5008157;28;20030;-77
2022/08/29 03:58:34;;;;;;;8.77;4.18;;;;;;;12.42;73.66;102084.25;5008943;28;20380;-77
2022/08/29 04:01:00;;;;;;;9.25;5.22;;;;;;;12.40;74.05;102079.94;5006514;28;20121;-77
2022/08/29 04:03:26;;;;;;;10.88;5.28;;;;;;;12.38;73.87;102076.50;5012616;28;20052;-77
2022/08/29 04:05:51;;;;;;;10.85;5.55;;;;;;;12.39;74.37;102080.84;5009927;28;20022;-77
2022/08/29 04:08:16;;;;;;;10.48;5.78;;;;;;;12.38;74.00;102073.88;5009841;28;20061;-77
2022/08/29 04:10:42;;;;;;;12.82;6.65;;;;;;;12.39;73.87;102075.63;5006234;28;20093;-77
2022/08/29 04:13:08;;;;;;;19.80;8.93;;;;;;;12.37;73.49;102069.53;5009739;28;20029;-77
2022/08/29 04:15:34;;;;;;;23.42;9.57;;;;;;;12.35;73.62;102073.91;5009695;28;20507;-77
2022/08/29 04:18:03;;;;;;;19.52;9.10;;;;;;;12.31;73.89;102080.94;5006548;28;20037;-77
2022/08/29 04:20:32;;;;;;;17.15;8.88;;;;;;;12.28;73.87;102078.34;5008177;28;20022;-77
2022/08/29 04:22:58;;;;;;;16.23;8.55;;;;;;;12.23;74.20;102081.03;5010396;28;20735;-77
2022/08/29 04:25:25;;;;;;;16.15;7.95;;;;;;;12.21;74.20;102080.19;5007494;28;20572;-77
2022/08/29 04:27:51;;;;;;;13.27;7.38;;;;;;;12.21;74.42;102077.56;5013429;28;20052;-77
2022/08/29 04:30:19;;;;;;;12.23;6.22;;;;;;;12.22;74.11;102074.09;5009831;28;20045;-76
2022/08/29 04:32:45;;;;;;;12.38;5.57;;;;;;;12.20;74.15;102073.25;5004046;28;20509;-77
2022/08/29 04:35:11;;;;;;;11.75;5.53;;;;;;;12.16;73.98;102070.69;5007958;28;20080;-76
2022/08/29 04:37:38;;;;;;;10.65;4.90;;;;;;;12.07;74.34;102074.28;5006403;28;20057;-77
2022/08/29 04:40:04;;;;;;;9.57;4.82;;;;;;;12.03;75.34;102075.19;5002808;28;20112;-77
2022/08/29 04:42:30;;;;;;;11.10;6.03;;;;;;;12.03;75.41;102080.41;5005968;28;20030;-77
2022/08/29 04:44:56;;;;;;;14.05;7.05;;;;;;;11.98;75.49;102081.31;5001684;28;20386;-77
2022/08/29 04:47:21;;;;;;;17.65;6.90;;;;;;;11.94;75.24;102087.44;5008997;28;20061;-77
2022/08/29 04:49:48;;;;;;;14.43;7.35;;;;;;;11.93;75.06;102090.94;5006535;28;20112;-77
2022/08/29 04:52:14;;;;;;;17.17;8.40;;;;;;;11.95;75.51;102083.97;5014794;28;20437;-77
2022/08/29 04:54:39;;;;;;;17.83;8.73;;;;;;;11.98;75.47;102091.75;5009423;28;20036;-77
2022/08/29 04:57:05;;;;;;;16.73;8.32;;;;;;;12.01;75.47;102087.38;5010306;28;20709;-76
2022/08/29 04:59:31;;;;;;;19.98;9.10;;;;;;;12.02;75.63;102099.56;5006742;28;20550;-77
2022/08/29 05:01:56;;;;;;;19.58;9.00;;;;;;;12.04;75.36;102103.00;5005541;28;20028;-77
2022/08/29 05:04:22;;;;;;;17.80;8.77;;;;;;;12.04;75.97;102109.06;5006404;28;20030;-77
2022/08/29 05:06:47;;;;;;;20.13;9.32;;;;;;;12.06;75.68;102112.53;5008514;28;20481;-77
2022/08/29 05:09:13;;;;;;;21.10;9.80;;;;;;;12.06;75.95;102104.72;5009142;28;20021;-77
2022/08/29 05:11:39;;;;;;;21.63;9.60;;;;;;;12.07;75.73;102100.38;5010183;28;20022;-77
2022/08/29 05:14:04;;;;;;;17.95;9.13;;;;;;;12.08;75.52;102104.72;5003187;28;20025;-77
2022/08/29 05:16:30;;;;;;;21.48;9.77;;;;;;;12.10;75.01;102103.78;5002357;28;20038;-77
2022/08/29 05:18:57;;;;;;;26.65;9.57;;;;;;;12.13;75.10;102102.88;4981801;28;20034;-77
2022/08/29 05:21:30;;;;;;;21.17;9.48;;;;;;;12.15;75.03;102106.34;5012459;28;20026;-77
2022/08/29 05:23:57;;;;;;;20.15;10.20;;;;;;;12.16;75.29;102105.47;5009374;28;20511;-76
2022/08/29 05:26:27;;;;;;;23.00;10.07;;;;;;;12.18;75.95;102110.69;5005403;28;20025;-77
2022/08/29 05:28:53;;;;;;;18.08;10.15;;;;;;;12.23;76.10;102117.56;5004711;28;20032;-77
2022/08/29 05:31:20;;;;;;;21.80;9.98;;;;;;;12.29;75.69;102114.00;5004159;28;20018;-77
2022/08/29 05:33:46;;;;;;;22.60;9.88;;;;;;;12.34;75.71;102112.22;5006590;28;20740;-77
2022/08/29 05:36:12;;;;;;;21.45;10.18;;;;;;;12.39;75.40;102114.75;5005052;28;20029;-77
2022/08/29 05:38:37;;;;;;;23.95;10.77;;;;;;;12.43;75.43;102119.91;5004314;28;20172;-77
2022/08/29 05:41:03;;;;;;;22.65;10.63;;;;;;;12.48;75.03;102119.00;5007059;28;20045;-77
2022/08/29 05:43:28;;;;;;;23.15;10.50;;;;;;;12.50;75.36;102115.47;5010921;28;20021;-77
2022/08/29 05:46:06;;;;;;;23.83;10.52;;;;;;;12.52;75.28;102115.47;5009196;28;20082;-77
2022/08/29 05:48:32;;;;;;;24.45;11.20;;;;;;;12.54;75.52;102106.72;5009094;28;20054;-77
2022/08/29 05:50:59;;;;;;;26.30;11.95;;;;;;;12.56;75.81;102111.91;5008807;28;20052;-77
2022/08/29 05:53:25;;;;;;;35.90;15.30;;;;;;;12.59;76.00;102122.31;5013597;28;20044;-77
2022/08/29 05:55:50;;;;;;;34.40;16.00;;;;;;;12.60;75.66;102124.94;5018071;28;20030;-77
2022/08/29 05:58:17;;;;;;;39.10;17.35;;;;;;;12.64;75.75;102132.72;5015998;28;20083;-77
2022/08/29 06:00:45;;;;;;;39.13;18.35;;;;;;;12.66;75.99;102128.31;5023856;28;20535;-77
2022/08/29 06:03:11;;;;;;;42.45;19.10;;;;;;;12.73;75.54;102145.63;5014296;28;20392;-77
2022/08/29 06:05:37;;;;;;;40.10;17.25;;;;;;;12.80;75.93;102136.84;5029741;28;20060;-77
2022/08/29 06:08:03;;;;;;;49.10;21.02;;;;;;;12.88;75.64;102147.19;5013555;28;20049;-77
2022/08/29 06:10:28;;;;;;;51.45;22.70;;;;;;;12.97;75.58;102143.56;5010553;28;20389;-77
2022/08/29 06:12:54;;;;;;;53.90;24.65;;;;;;;13.05;75.27;102141.69;5019446;28;20030;-77
2022/08/29 06:15:19;;;;;;;57.78;24.88;;;;;;;13.11;74.96;102136.38;5013682;28;20029;-77
2022/08/29 06:17:45;;;;;;;48.20;21.38;;;;;;;13.19;75.33;102144.09;5014773;28;20056;-77
2022/08/29 06:20:11;;;;;;;48.85;22.38;;;;;;;13.23;75.70;102129.22;4993993;28;20068;-77
2022/08/29 06:22:37;;;;;;;48.63;21.60;;;;;;;13.27;75.44;102136.13;5017886;28;20029;-77
2022/08/29 06:25:03;;;;;;;51.28;22.17;;;;;;;13.31;75.29;102140.44;5034164;28;20037;-77
2022/08/29 06:27:29;;;;;;;47.95;23.05;;;;;;;13.35;75.26;102139.47;5010650;28;20057;-77
2022/08/29 06:29:54;;;;;;;48.13;22.77;;;;;;;13.39;74.86;102146.38;5015175;28;20061;-77
2022/08/29 06:32:19;;;;;;;44.65;22.38;;;;;;;13.43;75.17;102132.41;5017920;28;20034;-77
2022/08/29 06:34:44;;;;;;;50.40;22.95;;;;;;;13.50;75.30;102139.25;5029400;28;20021;-76
2022/08/29 06:37:10;;;;;;;46.25;22.50;;;;;;;13.58;75.06;102131.25;5017055;28;20025;-77
2022/08/29 06:39:35;;;;;;;45.72;22.02;;;;;;;13.66;75.26;102139.00;5012189;28;20048;-77
2022/08/29 06:42:01;;;;;;;47.50;21.73;;;;;;;13.70;75.22;102140.66;5012334;28;20101;-77
2022/08/29 06:44:29;;;;;;;44.78;21.40;;;;;;;13.74;75.42;102137.09;5013459;28;20033;-77
2022/08/29 06:46:54;;;;;;;43.25;21.85;;;;;;;13.81;75.63;102143.94;4994109;28;20034;-77
2022/08/29 06:49:20;;;;;;;44.53;21.75;;;;;;;13.89;75.67;102148.16;5023945;28;20095;-77
2022/08/29 06:51:51;;;;;;;49.92;22.42;;;;;;;13.96;75.05;102152.41;5008214;28;20504;-77
2022/08/29 06:54:18;;;;;;;46.92;24.13;;;;;;;14.02;74.98;102157.50;5013005;28;20112;-77
2022/08/29 06:56:44;;;;;;;51.75;23.15;;;;;;;14.08;74.54;102154.78;5011839;28;20029;-77
2022/08/29 06:59:10;;;;;;;46.22;21.45;;;;;;;14.16;73.91;102161.63;5013660;28;20036;-77
2022/08/29 07:01:36;;;;;;;40.83;20.08;;;;;;;14.25;73.31;102164.03;5011859;28;20499;-77
2022/08/29 07:04:02;;;;;;;43.38;20.77;;;;;;;14.32;73.46;102155.19;5021073;28;20029;-77
2022/08/29 07:06:28;;;;;;;43.55;19.48;;;;;;;14.40;72.62;102152.41;5021869;28;20533;-77
2022/08/29 07:08:53;;;;;;;50.30;20.67;;;;;;;14.50;72.38;102159.16;5013539;28;20046;-77
2022/08/29 07:11:18;;;;;;;37.95;18.50;;;;;;;14.60;71.73;102165.06;5009460;28;20036;-77
2022/08/29 07:13:44;;;;;;;44.40;19.42;;;;;;;14.68;71.47;102172.78;5017839;28;20115;-77
2022/08/29 07:16:13;;;;;;;37.88;19.05;;;;;;;14.75;71.26;102169.16;5012454;28;20037;-77
2022/08/29 07:18:39;;;;;;;39.35;18.48;;;;;;;14.82;70.95;102168.13;5012524;28;20113;-77
2022/08/29 07:21:06;;;;;;;37.35;16.75;;;;;;;14.89;70.80;102170.59;4997584;28;20100;-77
2022/08/29 07:23:32;;;;;;;36.40;17.95;;;;;;;14.96;69.56;102161.69;5024269;28;20026;-77
2022/08/29 07:26:12;;;;;;;35.28;17.92;;;;;;;15.08;69.65;102160.56;5012695;28;20030;-77
2022/08/29 07:28:37;;;;;;;32.50;17.20;;;;;;;15.20;69.39;102154.16;5010687;28;20148;-77
2022/08/29 07:31:04;;;;;;;31.48;16.23;;;;;;;15.33;69.82;102153.84;5006976;28;20112;-77
2022/08/29 07:33:30;;;;;;;29.10;15.15;;;;;;;15.46;69.32;102161.38;5010656;28;20030;-77
2022/08/29 07:35:56;;;;;;;32.20;15.18;;;;;;;15.61;69.72;102160.16;5006394;28;20045;-77
2022/08/29 07:38:21;;;;;;;29.92;14.63;;;;;;;15.75;68.21;102151.91;5012397;28;20477;-77
2022/08/29 07:40:46;;;;;;;28.73;13.00;;;;;;;15.87;66.03;102158.63;5013062;28;20029;-77
2022/08/29 07:43:12;;;;;;;27.67;13.88;;;;;;;16.00;66.80;102152.13;5007334;28;20021;-77
2022/08/29 07:45:38;;;;;;;24.52;13.18;;;;;;;16.14;66.15;102151.75;5007903;28;20108;-77
2022/08/29 07:48:04;;;;;;;19.48;10.95;;;;;;;16.29;65.03;102149.59;5004278;28;20036;-77
2022/08/29 07:50:29;;;;;;;21.50;9.68;;;;;;;16.41;63.66;102140.50;5006177;28;20029;-77
2022/08/29 07:52:55;;;;;;;15.27;6.80;;;;;;;16.51;60.38;102153.31;5007797;28;20058;-77
2022/08/29 07:55:20;;;;;;;14.43;7.03;;;;;;;16.60;60.77;102148.69;5007322;28;20025;-77
2022/08/29 07:57:47;;;;;;;14.57;6.88;;;;;;;16.66;60.16;102141.47;5005612;28;20024;-76
2022/08/29 08:00:13;;;;;;;14.27;6.53;;;;;;;16.74;60.55;102143.84;4999208;28;20022;-77
2022/08/29 08:02:38;;;;;;;12.60;6.43;;;;;;;16.80;61.55;102138.41;5000865;28;20029;-77
2022/08/29 08:05:03;;;;;;;11.65;5.75;;;;;;;16.92;60.38;102131.91;5004191;28;20116;-77
2022/08/29 08:07:31;;;;;;;10.45;4.65;;;;;;;16.98;59.06;102130.88;5000271;28;20049;-77
2022/08/29 08:09:57;;;;;;;7.20;3.63;;;;;;;17.02;57.68;102140.41;4985015;28;20026;-77
2022/08/29 08:12:25;;;;;;;6.32;2.75;;;;;;;17.06;56.83;102143.78;4983793;28;20477;-78
2022/08/29 08:14:50;;;;;;;7.18;2.60;;;;;;;17.07;56.01;102129.72;4999159;28;20049;-77
2022/08/29 08:17:15;;;;;;;4.20;2.33;;;;;;;17.10;56.14;102135.75;5001296;28;20037;-78
2022/08/29 08:19:41;;;;;;;5.53;2.30;;;;;;;17.13;54.92;102134.81;5004455;28;20069;-78
2022/08/29 08:22:07;;;;;;;3.90;2.15;;;;;;;17.19;54.74;102136.38;5004340;28;20041;-78
2022/08/29 08:24:32;;;;;;;6.30;2.55;;;;;;;17.27;56.56;102139.59;5000209;28;20033;-78
2022/08/29 08:26:57;;;;;;;4.80;1.92;;;;;;;17.34;55.65;102141.13;5000806;28;20030;-78
2022/08/29 08:29:23;;;;;;;3.97;2.15;;;;;;;17.37;55.15;102145.41;5002566;28;20026;-78
2022/08/29 08:31:49;;;;;;;4.72;2.00;;;;;;;17.41;55.58;102145.28;4999843;28;20026;-78
2022/08/29 08:34:16;;;;;;;5.53;2.10;;;;;;;17.43;55.27;102146.06;5001498;28;20083;-78
2022/08/29 08:36:43;;;;;;;4.03;2.03;;;;;;;17.44;53.28;102142.50;5001809;28;20033;-78
2022/08/29 08:39:10;;;;;;;5.57;2.17;;;;;;;17.47;53.51;102149.47;4998199;28;20029;-78
2022/08/29 08:41:35;;;;;;;7.18;2.83;;;;;;;17.53;54.13;102145.75;4984261;28;20022;-78
2022/08/29 08:44:11;;;;;;;4.68;2.35;;;;;;;17.61;55.01;102148.97;4999469;28;20125;-78
2022/08/29 08:46:43;;;;;;;4.20;2.30;;;;;;;17.66;54.62;102149.69;4998941;28;20034;-78
2022/08/29 08:49:11;;;;;;;4.00;1.85;;;;;;;17.66;54.25;102160.19;4998510;28;20506;-78
2022/08/29 08:51:42;;;;;;;5.50;2.20;;;;;;;17.67;54.11;102154.03;4999333;28;20445;-78
2022/08/29 08:54:15;;;;;;;4.28;2.22;;;;;;;17.72;54.42;102146.84;5000272;28;20030;-78
2022/08/29 08:56:45;;;;;;;4.47;2.20;;;;;;;17.72;54.49;102146.84;5000924;28;20038;-78
2022/08/29 08:59:33;;;;;;;4.57;2.05;;;;;;;17.72;53.64;102151.22;5000930;28;20516;-78
2022/08/29 09:02:13;;;;;;;5.45;2.20;;;;;;;17.71;54.73;102150.38;4999865;28;20040;-78
2022/08/29 09:05:07;;;;;;;4.97;1.95;;;;;;;17.74;55.46;102158.19;4999518;28;20030;-78
2022/08/29 09:07:50;;;;;;;4.40;1.73;;;;;;;17.75;54.73;102159.03;5001022;28;20109;-78
2022/08/29 09:10:35;;;;;;;3.63;1.85;;;;;;;17.84;54.78;102155.22;4997893;28;20042;-78
2022/08/29 09:13:21;;;;;;;5.78;2.33;;;;;;;17.92;55.58;102150.53;5001853;28;20032;-78
2022/08/29 09:15:54;;;;;;;5.18;2.05;;;;;;;18.03;55.47;102153.66;5000289;28;20029;-78
2022/08/29 09:18:29;;;;;;;6.80;2.17;;;;;;;18.13;54.36;102153.31;4999654;28;20038;-78
2022/08/29 09:20:55;;;;;;;4.40;2.22;;;;;;;18.20;53.68;102152.19;5000164;28;20100;-78
2022/08/29 09:23:33;;;;;;;5.10;2.40;;;;;;;18.28;54.76;102155.38;5000364;28;20042;-78
2022/08/29 09:25:58;;;;;;;4.95;2.30;;;;;;;18.32;52.52;102157.00;5000898;28;20104;-78
2022/08/29 09:28:24;;;;;;;5.75;2.17;;;;;;;18.37;53.85;102155.97;5000317;28;20037;-78
2022/08/29 09:31:27;;;;;;;5.07;2.20;;;;;;;18.43;54.73;102156.59;5000623;28;20347;-78
2022/08/29 09:33:58;;;;;;;5.95;2.20;;;;;;;18.47;53.30;102150.28;5000702;28;20073;-78
2022/08/29 09:36:41;;;;;;;6.00;2.38;;;;;;;18.48;52.97;102153.78;5002631;28;20119;-78
2022/08/29 09:39:15;;;;;;;5.35;2.50;;;;;;;18.51;52.96;102151.03;5000049;28;20037;-78
2022/08/29 09:41:42;;;;;;;4.63;2.20;;;;;;;18.53;52.48;102154.47;5002135;28;20160;-78
2022/08/29 09:44:13;;;;;;;6.03;2.38;;;;;;;18.53;51.70;102146.56;4986406;28;20591;-78
2022/08/29 09:46:38;;;;;;;4.93;2.25;;;;;;;18.54;51.86;102152.69;5004013;28;20042;-78
2022/08/29 09:49:04;;;;;;;4.28;2.10;;;;;;;18.53;53.01;102149.19;5004766;28;20714;-78
2022/08/29 09:51:33;;;;;;;5.13;2.08;;;;;;;18.53;52.34;102151.84;5007160;28;20116;-78
2022/08/29 09:54:21;;;;;;;4.60;1.85;;;;;;;18.52;52.69;102144.84;5006064;28;20025;-78
2022/08/29 09:57:19;;;;;;;5.18;2.05;;;;;;;18.52;51.71;102149.28;4995696;28;20038;-78
2022/08/29 09:59:48;;;;;;;3.47;2.00;;;;;;;18.53;50.50;102156.25;4986329;28;20053;-78
2022/08/29 10:02:24;;;;;;;5.05;2.20;;;;;;;18.53;51.62;102157.09;5006655;28;20029;-78
2022/08/29 10:04:53;;;;;;;5.13;2.30;;;;;;;18.51;51.95;102158.94;5007165;28;20041;-77
2022/08/29 10:07:22;;;;;;;5.20;2.05;;;;;;;18.53;51.69;102162.38;5006825;28;20172;-77
2022/08/29 10:10:13;;;;;;;4.53;2.22;;;;;;;18.52;52.26;102155.38;5006542;28;20037;-77
2022/08/29 10:12:56;;;;;;;4.20;2.40;;;;;;;18.49;51.83;102161.66;5006808;28;20060;-77
2022/08/29 10:15:29;;;;;;;5.20;2.13;;;;;;;18.53;52.83;102154.47;5004661;28;20037;-77
2022/08/29 10:18:22;;;;;;;4.15;2.10;;;;;;;18.59;52.21;102148.09;5004998;28;20030;-77
2022/08/29 10:20:54;;;;;;;4.65;2.13;;;;;;;18.62;51.56;102146.19;5005774;28;20528;-77
2022/08/29 10:23:40;;;;;;;5.35;2.22;;;;;;;18.61;52.21;102149.78;5005834;28;20029;-78
2022/08/29 10:26:20;;;;;;;4.40;1.95;;;;;;;18.55;52.35;102144.72;5002775;28;20051;-78
2022/08/29 10:28:53;;;;;;;4.45;2.08;;;;;;;18.47;50.71;102147.66;5002690;28;20037;-78
2022/08/29 10:31:45;;;;;;;4.93;2.30;;;;;;;18.44;52.29;102145.13;5004132;28;20143;-78
2022/08/29 10:34:33;;;;;;;5.38;2.17;;;;;;;18.44;52.42;102154.84;5001580;28;20026;-78
2022/08/29 10:37:18;;;;;;;6.55;2.35;;;;;;;18.41;51.86;102147.03;4997060;28;20073;-78
2022/08/29 10:40:03;;;;;;;5.95;2.13;;;;;;;18.42;52.44;102144.34;5004112;28;20025;-78
2022/08/29 10:42:32;;;;;;;5.95;2.40;;;;;;;18.44;51.55;102147.78;5002321;28;20073;-78
2022/08/29 10:45:17;;;;;;;5.10;2.08;;;;;;;18.47;51.75;102147.66;5002698;28;20030;-78
2022/08/29 10:48:01;;;;;;;5.10;2.25;;;;;;;18.50;51.60;102150.19;5001138;28;20648;-78
2022/08/29 10:50:46;;;;;;;4.38;2.35;;;;;;;18.48;51.49;102145.88;5001342;28;20038;-78
2022/08/29 10:53:17;;;;;;;5.00;2.30;;;;;;;18.46;50.44;102150.34;5002690;28;20026;-79
2022/08/29 10:56:00;;;;;;;5.40;2.30;;;;;;;18.51;51.10;102148.41;5004187;28;20622;-78
2022/08/29 10:58:51;;;;;;;4.18;1.90;;;;;;;18.60;51.50;102137.50;5003142;28;20362;-78
2022/08/29 11:01:26;;;;;;;5.68;2.50;;;;;;;18.66;51.18;102126.72;5003558;28;20125;-79
2022/08/29 11:04:07;;;;;;;6.95;2.20;;;;;;;18.73;52.42;102132.59;5004937;28;20040;-78
2022/08/29 11:06:42;;;;;;;4.68;2.25;;;;;;;18.81;51.63;102129.66;5002803;28;20172;-79
2022/08/29 11:09:17;;;;;;;4.28;2.00;;;;;;;18.87;50.54;102124.16;5001982;28;20038;-79
2022/08/29 11:12:24;;;;;;;3.80;1.90;;;;;;;18.93;51.05;102123.91;4999195;28;20042;-78
2022/08/29 11:15:02;;;;;;;5.50;2.47;;;;;;;18.92;50.70;102126.59;4990237;28;20511;-78
2022/08/29 11:17:33;;;;;;;7.10;2.38;;;;;;;18.91;51.58;102114.31;5003451;28;20036;-78
2022/08/29 11:20:10;;;;;;;3.80;1.60;;;;;;;18.98;52.49;102114.97;5006561;28;20077;-78
2022/08/29 11:23:02;;;;;;;4.97;2.03;;;;;;;19.07;51.89;102110.16;4985894;28;20041;-78
2022/08/29 11:25:31;;;;;;;3.65;1.70;;;;;;;19.18;50.90;102103.59;4991721;28;20053;-78
2022/08/29 11:28:16;;;;;;;5.20;2.30;;;;;;;19.26;50.94;102094.44;5001713;28;20547;-78
2022/08/29 11:30:47;;;;;;;3.67;1.88;;;;;;;19.35;49.03;102097.59;5001572;28;20534;-78